createdAt,value
2022-10-11T00:02:01.160Z,79.75
2022-10-11T00:06:12.693Z,79.79
2022-10-11T00:10:24.610Z,79.79
2022-10-11T00:14:36.249Z,79.66
2022-10-11T00:18:54.614Z,79.84
2022-10-11T00:23:06.188Z,79.67
2022-10-11T00:27:17.703Z,79.58
2022-10-11T00:31:34.706Z,79.62
2022-10-11T00:35:47.280Z,79.87
2022-10-11T00:39:58.891Z,79.89
2022-10-11T00:44:18.666Z,80.32
2022-10-11T00:48:48.840Z,79.94
2022-10-11T00:53:05.700Z,80.29
2022-10-11T00:57:22.733Z,80.17
2022-10-11T01:01:34.450Z,80.27
2022-10-11T01:05:46.223Z,80.16
2022-10-11T01:09:58.349Z,80.16
2022-10-11T01:14:43.512Z,80.44
2022-10-11T01:19:04.817Z,80.26
2022-10-11T01:23:53.873Z,80.20
2022-10-11T01:28:30.671Z,80.63
2022-10-11T01:32:55.973Z,80.32
2022-10-11T01:37:16.692Z,80.71
2022-10-11T01:41:35.397Z,80.63
2022-10-11T01:45:51.649Z,80.54
2022-10-11T01:50:03.862Z,80.79
2022-10-11T01:55:09.056Z,80.56
2022-10-11T01:59:33.662Z,80.81
2022-10-11T02:03:55.122Z,80.65
2022-10-11T02:08:45.021Z,80.92
2022-10-11T02:13:20.733Z,80.67
2022-10-11T02:17:36.675Z,80.80
2022-10-11T02:21:54.495Z,80.71
2022-10-11T02:26:07.417Z,81.07
2022-10-11T02:30:19.410Z,80.69
2022-10-11T02:34:35.459Z,80.73
2022-10-11T02:38:54.838Z,80.69
2022-10-11T02:43:36.481Z,80.64
2022-10-11T02:47:48.498Z,80.78
2022-10-11T02:52:00.389Z,81.17
2022-10-11T02:56:12.029Z,80.93
2022-10-11T03:00:23.565Z,80.99
2022-10-11T03:04:35.118Z,81.30
2022-10-11T03:08:46.676Z,80.97
2022-10-11T03:12:58.255Z,81.20
2022-10-11T03:17:34.346Z,81.46
2022-10-11T03:21:41.342Z,81.24
2022-10-11T03:25:52.940Z,81.04
2022-10-11T03:30:05.210Z,81.49
2022-10-11T03:34:16.766Z,81.61
2022-10-11T03:38:28.553Z,81.84
2022-10-11T03:42:40.825Z,81.65
2022-10-11T03:46:52.442Z,81.96
2022-10-11T03:51:04.334Z,82.22
2022-10-11T03:55:16.038Z,82.00
2022-10-11T03:59:27.593Z,82.02
2022-10-11T04:03:39.154Z,81.69
2022-10-11T04:07:51.399Z,82.46
2022-10-11T04:12:03.681Z,82.00
2022-10-11T04:16:15.504Z,82.44
2022-10-11T04:20:27.054Z,82.12
2022-10-11T04:24:38.586Z,81.84
2022-10-11T04:28:50.359Z,82.44
2022-10-11T04:33:02.268Z,82.19
2022-10-11T04:37:13.977Z,82.76
2022-10-11T04:41:25.516Z,82.53
2022-10-11T04:45:37.151Z,82.39
2022-10-11T04:49:48.705Z,82.02
2022-10-11T04:54:00.313Z,81.91
2022-10-11T04:58:11.823Z,82.31
2022-10-11T05:02:23.450Z,81.72
2022-10-11T05:06:35.091Z,81.34
2022-10-11T05:11:06.364Z,81.76
2022-10-11T05:15:18.073Z,81.47
2022-10-11T05:19:29.624Z,81.55
2022-10-11T05:23:41.730Z,81.81
2022-10-11T05:27:53.333Z,81.58
2022-10-11T05:32:05.075Z,81.86
2022-10-11T05:36:16.790Z,81.51
2022-10-11T05:40:28.380Z,81.47
2022-10-11T05:44:39.996Z,81.84
2022-10-11T05:48:51.548Z,81.92
2022-10-11T05:53:04.086Z,81.65
2022-10-11T05:57:16.151Z,82.22
2022-10-11T06:01:27.999Z,81.77
2022-10-11T06:05:40.054Z,81.75
2022-10-11T06:09:52.093Z,82.05
2022-10-11T06:14:03.835Z,82.42
2022-10-11T06:18:15.368Z,82.23
2022-10-11T06:22:27.492Z,82.30
2022-10-11T06:26:39.147Z,82.64
2022-10-11T06:30:50.646Z,82.85
2022-10-11T06:35:03.357Z,82.75
2022-10-11T06:39:14.954Z,82.80
2022-10-11T06:43:26.679Z,82.62
2022-10-11T06:47:38.170Z,82.99
2022-10-11T06:51:49.637Z,82.80
2022-10-11T06:56:11.822Z,82.56
2022-10-11T07:00:23.307Z,82.63
2022-10-11T07:04:34.805Z,82.38
2022-10-11T07:08:47.025Z,82.41
2022-10-11T07:12:58.501Z,82.09
2022-10-11T07:17:09.996Z,81.88
2022-10-11T07:21:21.943Z,81.92
2022-10-11T07:25:33.488Z,81.50
2022-10-11T07:29:45.085Z,80.27
2022-10-11T07:33:56.635Z,80.56
2022-10-11T07:38:08.538Z,80.45
2022-10-11T07:42:20.094Z,79.85
2022-10-11T07:46:31.838Z,79.50
2022-10-11T07:50:43.435Z,78.90
2022-10-11T07:54:55.003Z,77.73
2022-10-11T07:59:08.020Z,76.84
2022-10-11T08:03:19.624Z,75.25
2022-10-11T08:07:31.210Z,74.78
2022-10-11T08:11:42.815Z,72.87
2022-10-11T08:15:54.946Z,72.36
2022-10-11T08:20:06.736Z,70.11
2022-10-11T08:24:20.828Z,67.45
2022-10-11T08:28:33.156Z,66.56
2022-10-11T08:32:44.786Z,63.83
2022-10-11T08:36:56.324Z,61.06
2022-10-11T08:41:26.218Z,59.90
2022-10-11T08:45:50.221Z,58.28
2022-10-11T08:50:03.850Z,55.78
2022-10-11T08:54:34.374Z,54.33
2022-10-11T08:58:57.627Z,52.65
2022-10-11T09:03:39.468Z,50.99
2022-10-11T09:08:13.863Z,49.64
2022-10-11T09:12:46.888Z,47.79
2022-10-11T09:17:23.269Z,46.75
2022-10-11T09:21:34.779Z,46.16
2022-10-11T09:26:05.443Z,45.14
2022-10-11T09:30:19.477Z,45.44
2022-10-11T09:34:33.526Z,44.51
2022-10-11T09:39:12.874Z,42.35
2022-10-11T09:43:24.630Z,42.49
2022-10-11T09:47:36.197Z,42.66
2022-10-11T09:51:56.725Z,42.11
2022-10-11T09:56:09.242Z,41.66
2022-10-11T10:00:24.493Z,40.57
2022-10-11T10:04:57.014Z,39.94
2022-10-11T10:09:30.186Z,40.19
2022-10-11T10:13:45.210Z,39.91
2022-10-11T10:17:57.182Z,38.88
2022-10-11T10:22:26.993Z,39.36
2022-10-11T10:26:40.203Z,38.58
2022-10-11T10:30:54.362Z,38.45
2022-10-11T10:35:21.905Z,37.77
2022-10-11T10:39:50.853Z,37.40
2022-10-11T10:44:03.182Z,37.68
2022-10-11T10:49:19.115Z,37.71
2022-10-11T10:53:33.104Z,37.93
2022-10-11T10:58:13.986Z,37.11
2022-10-11T11:02:50.286Z,37.34
2022-10-11T11:07:16.976Z,37.44
2022-10-11T11:11:28.462Z,37.24
2022-10-11T11:15:52.982Z,36.92
2022-10-11T11:20:27.336Z,36.51
2022-10-11T11:25:04.242Z,35.00
2022-10-11T11:29:22.200Z,35.64
2022-10-11T11:33:47.816Z,35.45
2022-10-11T11:38:29.522Z,36.16
2022-10-11T11:42:47.532Z,35.91
2022-10-11T11:47:17.992Z,36.06
2022-10-11T11:51:38.969Z,35.42
2022-10-11T11:56:28.074Z,34.75
2022-10-11T12:01:03.015Z,34.00
2022-10-11T12:05:19.050Z,33.81
2022-10-11T12:09:32.209Z,33.36
2022-10-11T12:13:44.622Z,33.42
2022-10-11T12:17:56.104Z,33.50
2022-10-11T12:22:58.465Z,33.66
2022-10-11T12:27:37.223Z,33.76
2022-10-11T12:32:14.101Z,34.21
2022-10-11T12:36:31.416Z,35.08
2022-10-11T12:40:47.024Z,35.63
2022-10-11T12:45:10.777Z,36.87
2022-10-11T12:49:55.821Z,37.30
2022-10-11T12:54:29.143Z,37.29
2022-10-11T12:58:48.074Z,37.18
2022-10-11T13:03:05.831Z,37.05
2022-10-11T13:07:23.562Z,36.88
2022-10-11T13:11:40.340Z,37.31
2022-10-11T13:15:54.075Z,37.91
2022-10-11T13:20:20.694Z,38.65
2022-10-11T13:24:40.061Z,39.55
2022-10-11T13:28:51.850Z,39.71
2022-10-11T13:33:11.126Z,40.40
2022-10-11T13:37:26.053Z,40.46
2022-10-11T13:41:37.723Z,41.29
2022-10-11T13:45:49.375Z,41.26
2022-10-11T13:50:31.604Z,41.49
2022-10-11T13:54:58.893Z,41.36
2022-10-11T13:59:18.955Z,41.56
2022-10-11T14:03:40.560Z,41.25
2022-10-11T14:07:52.370Z,41.39
2022-10-11T14:12:25.843Z,41.32
2022-10-11T14:16:37.482Z,41.78
2022-10-11T14:20:49.061Z,42.34
2022-10-11T14:25:00.630Z,42.89
2022-10-11T14:29:33.878Z,43.19
2022-10-11T14:33:45.636Z,43.15
2022-10-11T14:37:58.060Z,43.41
2022-10-11T14:42:11.937Z,43.70
2022-10-11T14:46:26.405Z,43.78
2022-10-11T14:50:52.647Z,43.66
2022-10-11T14:55:04.659Z,43.64
2022-10-11T14:59:18.430Z,43.51
2022-10-11T15:03:30.030Z,43.08
2022-10-11T15:07:41.641Z,42.87
2022-10-11T15:11:54.787Z,42.90
2022-10-11T15:16:07.360Z,42.81
2022-10-11T15:20:40.937Z,43.42
2022-10-11T15:24:52.523Z,44.17
2022-10-11T15:29:04.490Z,43.75
2022-10-11T15:33:16.044Z,43.76
2022-10-11T15:37:27.602Z,43.77
2022-10-11T15:41:39.219Z,44.10
2022-10-11T15:45:50.815Z,44.09
2022-10-11T15:50:02.459Z,44.28
2022-10-11T15:54:14.097Z,44.76
2022-10-11T15:58:29.299Z,45.20
2022-10-11T16:02:40.911Z,45.45
2022-10-11T16:06:52.467Z,45.64
2022-10-11T16:11:05.550Z,45.44
2022-10-11T16:15:17.504Z,45.58
2022-10-11T16:19:29.126Z,45.62
2022-10-11T16:23:40.770Z,45.62
2022-10-11T16:27:52.599Z,45.90
2022-10-11T16:32:04.332Z,46.21
2022-10-11T16:36:37.027Z,46.70
2022-10-11T16:40:48.621Z,46.81
2022-10-11T16:45:00.751Z,47.93
2022-10-11T16:49:12.514Z,49.02
2022-10-11T16:53:24.089Z,50.74
2022-10-11T16:57:37.684Z,51.32
2022-10-11T17:01:49.412Z,51.94
2022-10-11T17:06:01.098Z,52.48
2022-10-11T17:10:12.727Z,53.00
2022-10-11T17:14:24.270Z,53.99
2022-10-11T17:18:36.117Z,54.63
2022-10-11T17:22:47.814Z,55.43
2022-10-11T17:26:59.406Z,56.26
2022-10-11T17:31:11.348Z,56.70
2022-10-11T17:35:22.945Z,57.53
2022-10-11T17:39:34.607Z,58.05
2022-10-11T17:43:46.850Z,58.57
2022-10-11T17:48:00.560Z,59.18
2022-10-11T17:52:12.108Z,59.63
2022-10-11T17:56:29.566Z,60.13
2022-10-11T18:00:43.786Z,60.68
2022-10-11T18:04:55.378Z,60.76
2022-10-11T18:09:07.179Z,61.24
2022-10-11T18:13:19.038Z,61.46
2022-10-11T18:17:31.063Z,61.77
2022-10-11T18:21:42.726Z,62.09
2022-10-11T18:25:54.523Z,62.06
2022-10-11T18:30:06.964Z,62.48
2022-10-11T18:34:18.554Z,62.35
2022-10-11T18:38:30.169Z,62.46
2022-10-11T18:42:41.734Z,62.62
2022-10-11T18:46:54.077Z,62.69
2022-10-11T18:51:08.063Z,62.71
2022-10-11T18:55:19.861Z,63.05
2022-10-11T18:59:32.901Z,63.16
2022-10-11T19:03:45.725Z,63.46
2022-10-11T19:07:57.193Z,64.14
2022-10-11T19:12:08.687Z,64.32
2022-10-11T19:16:20.561Z,64.10
2022-10-11T19:20:35.635Z,64.71
2022-10-11T19:24:47.172Z,64.67
2022-10-11T19:29:05.786Z,65.19
2022-10-11T19:33:17.406Z,65.60
2022-10-11T19:37:29.131Z,65.79
2022-10-11T19:41:41.876Z,65.76
2022-10-11T19:46:04.497Z,66.11
2022-10-11T19:50:16.081Z,66.36
2022-10-11T19:54:28.121Z,66.75
2022-10-11T19:58:40.306Z,66.61
2022-10-11T20:02:51.831Z,67.01
2022-10-11T20:07:03.397Z,67.40
2022-10-11T20:11:16.707Z,67.60
2022-10-11T20:15:28.180Z,67.64
2022-10-11T20:19:40.137Z,67.70
2022-10-11T20:23:52.973Z,67.75
2022-10-11T20:28:04.441Z,68.26
2022-10-11T20:32:15.884Z,68.44
2022-10-11T20:36:29.991Z,68.46
2022-10-11T20:40:41.516Z,69.10
2022-10-11T20:44:52.966Z,68.90
2022-10-11T20:49:07.555Z,68.74
2022-10-11T20:53:19.144Z,70.99
2022-10-11T20:57:31.667Z,70.90
2022-10-11T21:01:43.587Z,70.41
2022-10-11T21:05:59.885Z,70.22
2022-10-11T21:10:11.514Z,70.25
2022-10-11T21:14:23.784Z,70.11
2022-10-11T21:18:35.502Z,70.43
2022-10-11T21:22:47.098Z,70.13
2022-10-11T21:27:00.804Z,70.17
2022-10-11T21:31:16.416Z,70.30
2022-10-11T21:35:29.823Z,70.33
2022-10-11T21:39:41.424Z,70.54
2022-10-11T21:43:53.383Z,70.62
2022-10-11T21:48:05.271Z,70.56
2022-10-11T21:52:17.168Z,70.62
2022-10-11T21:56:29.460Z,71.19
2022-10-11T22:00:41.025Z,71.29
2022-10-11T22:04:52.703Z,71.25
2022-10-11T22:09:05.746Z,71.26
2022-10-11T22:13:17.431Z,71.26
2022-10-11T22:17:28.946Z,71.57
2022-10-11T22:21:44.852Z,71.60
2022-10-11T22:26:08.200Z,71.92
2022-10-11T22:30:19.915Z,71.73
2022-10-11T22:34:33.217Z,71.81
2022-10-11T22:38:45.970Z,71.91
2022-10-11T22:42:57.504Z,71.90
2022-10-11T22:47:09.035Z,72.21
2022-10-11T22:51:20.639Z,72.32
2022-10-11T22:55:32.319Z,72.34
2022-10-11T22:59:43.871Z,72.71
2022-10-11T23:03:56.382Z,72.41
2022-10-11T23:08:09.568Z,72.38
2022-10-11T23:12:21.107Z,72.47
2022-10-11T23:16:32.579Z,72.97
2022-10-11T23:20:44.650Z,73.00
2022-10-11T23:24:56.184Z,73.10
2022-10-11T23:29:07.677Z,73.05
2022-10-11T23:33:19.193Z,73.01
2022-10-11T23:37:30.792Z,73.06
2022-10-11T23:41:43.575Z,73.12
2022-10-11T23:45:55.896Z,73.47
2022-10-11T23:50:08.458Z,73.58
2022-10-11T23:54:19.949Z,73.58
2022-10-11T23:58:31.457Z,73.84
